Baxter, Minnesota
Current Conditions -  °F | °C
As of 7:53 AM on Friday 24 Oct 2014 (Local Time) from KBRD Reporting Station
Clear Clear  
Wind Chill: 41°   Ceiling: Unl
Heat Index: 45°   Visibility: 10mi
Dew Point: 40°   Wind: 7mph
Humidity: 82%   Direction: 180°S
Pressure: 29.85"   Gusts: NA
Location:  46.34°N, 94.29°W
Report Text: KBRD 241253Z AUTO 18006KT 10SM CLR 07/04 A2985 RMK AO2 SLP114 T00720044
Loading
Personal Weather Stations






























Interactive Weather Map
Tropical Storm Tracking
New forecast layout! Learn more

10-Day Weather Forecast

Advertisements
Track Severe Weather on mobile